< < Back
Terminal Aerodrome Forecast


Current Version              Previous Versions:   1  2  3  4  5  6  7  8  9  

Terminal Aerodrome Forecast

084
FTUS42 KGSP 290500
TAFAND
TAF
KAND 290531Z 2906/3006 00000KT P6SM SKC
     FM291700 14005KT P6SM FEW250=

Latest METAR

034
SAUS70 KWBC 291000 RRG
MTRAND
METAR KAND 290956Z AUTO 00000KT 10SM CLR 19/16 A3006 RMK AO2 SLP169
T01890161


USA.gov is the U.S. government's official web portal to all federal, state and local government web resources and services.